sensor_id;sensor_type;location;lat;lon;timestamp;P1;durP1;ratioP1;P2;durP2;ratioP2
32038;SDS011;18549;42.286;22.688;2023-09-12T00:00:30;5.70;;;2.62;;
32038;SDS011;18549;42.286;22.688;2023-09-12T00:02:58;9.85;;;2.50;;
32038;SDS011;18549;42.286;22.688;2023-09-12T00:05:25;5.43;;;2.75;;
32038;SDS011;18549;42.286;22.688;2023-09-12T00:07:53;6.80;;;3.58;;
32038;SDS011;18549;42.286;22.688;2023-09-12T00:10:20;4.90;;;2.45;;
32038;SDS011;18549;42.286;22.688;2023-09-12T00:12:49;6.75;;;2.60;;
32038;SDS011;18549;42.286;22.688;2023-09-12T00:15:17;7.03;;;2.70;;
32038;SDS011;18549;42.286;22.688;2023-09-12T00:17:45;7.10;;;3.40;;
32038;SDS011;18549;42.286;22.688;2023-09-12T00:20:14;7.35;;;2.60;;
32038;SDS011;18549;42.286;22.688;2023-09-12T00:22:41;3.78;;;2.67;;
32038;SDS011;18549;42.286;22.688;2023-09-12T00:25:11;6.60;;;3.30;;
32038;SDS011;18549;42.286;22.688;2023-09-12T00:27:41;3.55;;;2.85;;
32038;SDS011;18549;42.286;22.688;2023-09-12T00:30:10;8.07;;;3.00;;
32038;SDS011;18549;42.286;22.688;2023-09-12T00:32:38;11.80;;;3.58;;
32038;SDS011;18549;42.286;22.688;2023-09-12T00:35:06;5.47;;;3.37;;
32038;SDS011;18549;42.286;22.688;2023-09-12T00:37:35;5.12;;;2.78;;
32038;SDS011;18549;42.286;22.688;2023-09-12T00:40:02;4.18;;;2.75;;
32038;SDS011;18549;42.286;22.688;2023-09-12T00:42:30;5.07;;;3.05;;
32038;SDS011;18549;42.286;22.688;2023-09-12T00:44:58;10.32;;;4.40;;
32038;SDS011;18549;42.286;22.688;2023-09-12T00:47:27;12.90;;;3.58;;
32038;SDS011;18549;42.286;22.688;2023-09-12T00:49:56;8.05;;;3.17;;
32038;SDS011;18549;42.286;22.688;2023-09-12T00:52:26;8.88;;;2.97;;
32038;SDS011;18549;42.286;22.688;2023-09-12T00:54:55;8.13;;;3.45;;
32038;SDS011;18549;42.286;22.688;2023-09-12T00:57:22;5.28;;;3.28;;
32038;SDS011;18549;42.286;22.688;2023-09-12T00:59:51;8.43;;;3.40;;
32038;SDS011;18549;42.286;22.688;2023-09-12T01:02:20;8.32;;;3.80;;
32038;SDS011;18549;42.286;22.688;2023-09-12T01:04:50;5.95;;;2.95;;
32038;SDS011;18549;42.286;22.688;2023-09-12T01:07:18;4.68;;;2.60;;
32038;SDS011;18549;42.286;22.688;2023-09-12T01:09:45;5.82;;;3.12;;
32038;SDS011;18549;42.286;22.688;2023-09-12T01:12:13;4.22;;;2.35;;
32038;SDS011;18549;42.286;22.688;2023-09-12T01:14:41;5.12;;;2.45;;
32038;SDS011;18549;42.286;22.688;2023-09-12T01:17:08;4.35;;;2.83;;
32038;SDS011;18549;42.286;22.688;2023-09-12T01:19:36;5.40;;;3.03;;
32038;SDS011;18549;42.286;22.688;2023-09-12T01:22:12;6.80;;;3.72;;
32038;SDS011;18549;42.286;22.688;2023-09-12T01:28:00;4.93;;;3.35;;
32038;SDS011;18549;42.286;22.688;2023-09-12T01:30:29;6.78;;;4.12;;
32038;SDS011;18549;42.286;22.688;2023-09-12T01:33:02;8.38;;;3.20;;
32038;SDS011;18549;42.286;22.688;2023-09-12T01:35:30;4.43;;;2.92;;
32038;SDS011;18549;42.286;22.688;2023-09-12T01:37:57;6.30;;;3.20;;
32038;SDS011;18549;42.286;22.688;2023-09-12T01:40:27;5.50;;;3.00;;
32038;SDS011;18549;42.286;22.688;2023-09-12T01:43:02;3.70;;;2.67;;
32038;SDS011;18549;42.286;22.688;2023-09-12T01:45:32;5.47;;;2.85;;
32038;SDS011;18549;42.286;22.688;2023-09-12T01:48:02;4.82;;;2.65;;
32038;SDS011;18549;42.286;22.688;2023-09-12T01:50:31;5.47;;;3.12;;
32038;SDS011;18549;42.286;22.688;2023-09-12T01:52:59;11.12;;;3.65;;
32038;SDS011;18549;42.286;22.688;2023-09-12T01:55:27;9.77;;;3.00;;
32038;SDS011;18549;42.286;22.688;2023-09-12T01:57:55;5.78;;;2.65;;
32038;SDS011;18549;42.286;22.688;2023-09-12T02:00:25;8.75;;;3.53;;
32038;SDS011;18549;42.286;22.688;2023-09-12T02:02:53;14.70;;;3.72;;
32038;SDS011;18549;42.286;22.688;2023-09-12T02:05:20;5.20;;;3.35;;
32038;SDS011;18549;42.286;22.688;2023-09-12T02:07:49;5.85;;;3.47;;
32038;SDS011;18549;42.286;22.688;2023-09-12T02:10:16;7.32;;;3.80;;
32038;SDS011;18549;42.286;22.688;2023-09-12T02:12:50;7.60;;;3.50;;
32038;SDS011;18549;42.286;22.688;2023-09-12T02:15:18;8.23;;;3.25;;
32038;SDS011;18549;42.286;22.688;2023-09-12T02:17:48;7.35;;;3.33;;
32038;SDS011;18549;42.286;22.688;2023-09-12T02:20:18;12.57;;;3.30;;
32038;SDS011;18549;42.286;22.688;2023-09-12T02:22:46;7.95;;;3.90;;
32038;SDS011;18549;42.286;22.688;2023-09-12T02:25:17;5.72;;;3.12;;
32038;SDS011;18549;42.286;22.688;2023-09-12T02:27:45;6.10;;;3.65;;
32038;SDS011;18549;42.286;22.688;2023-09-12T02:30:14;10.27;;;4.25;;
32038;SDS011;18549;42.286;22.688;2023-09-12T02:32:42;7.00;;;3.85;;
32038;SDS011;18549;42.286;22.688;2023-09-12T02:35:14;6.03;;;3.53;;
32038;SDS011;18549;42.286;22.688;2023-09-12T02:37:43;5.60;;;3.33;;
32038;SDS011;18549;42.286;22.688;2023-09-12T02:40:10;4.93;;;3.03;;
32038;SDS011;18549;42.286;22.688;2023-09-12T02:42:39;7.05;;;4.03;;
32038;SDS011;18549;42.286;22.688;2023-09-12T02:45:10;7.07;;;3.10;;
32038;SDS011;18549;42.286;22.688;2023-09-12T02:47:38;10.73;;;3.33;;
32038;SDS011;18549;42.286;22.688;2023-09-12T02:50:08;9.77;;;3.90;;
32038;SDS011;18549;42.286;22.688;2023-09-12T02:52:42;10.27;;;3.58;;
32038;SDS011;18549;42.286;22.688;2023-09-12T02:55:10;7.00;;;4.03;;
32038;SDS011;18549;42.286;22.688;2023-09-12T02:57:39;7.47;;;4.12;;
32038;SDS011;18549;42.286;22.688;2023-09-12T03:00:07;8.45;;;4.45;;
32038;SDS011;18549;42.286;22.688;2023-09-12T03:02:36;8.85;;;4.00;;
32038;SDS011;18549;42.286;22.688;2023-09-12T03:05:04;6.32;;;4.32;;
32038;SDS011;18549;42.286;22.688;2023-09-12T03:07:31;7.05;;;3.80;;
32038;SDS011;18549;42.286;22.688;2023-09-12T03:10:00;12.43;;;4.35;;
32038;SDS011;18549;42.286;22.688;2023-09-12T03:12:28;6.85;;;3.33;;
32038;SDS011;18549;42.286;22.688;2023-09-12T03:14:56;9.65;;;3.70;;
32038;SDS011;18549;42.286;22.688;2023-09-12T03:17:24;5.95;;;3.60;;
32038;SDS011;18549;42.286;22.688;2023-09-12T03:19:51;6.85;;;3.12;;
32038;SDS011;18549;42.286;22.688;2023-09-12T03:22:19;6.57;;;3.50;;
32038;SDS011;18549;42.286;22.688;2023-09-12T03:24:46;7.45;;;3.12;;
32038;SDS011;18549;42.286;22.688;2023-09-12T03:27:15;7.25;;;3.20;;
32038;SDS011;18549;42.286;22.688;2023-09-12T03:29:44;12.15;;;3.00;;
32038;SDS011;18549;42.286;22.688;2023-09-12T03:32:13;3.75;;;2.62;;
32038;SDS011;18549;42.286;22.688;2023-09-12T03:34:41;8.75;;;3.30;;
32038;SDS011;18549;42.286;22.688;2023-09-12T03:37:09;5.28;;;3.25;;
32038;SDS011;18549;42.286;22.688;2023-09-12T03:39:36;10.15;;;3.10;;
32038;SDS011;18549;42.286;22.688;2023-09-12T03:42:04;3.97;;;2.80;;
32038;SDS011;18549;42.286;22.688;2023-09-12T03:44:33;8.40;;;3.22;;
32038;SDS011;18549;42.286;22.688;2023-09-12T03:47:01;9.73;;;6.37;;
32038;SDS011;18549;42.286;22.688;2023-09-12T03:49:28;15.40;;;10.18;;
32038;SDS011;18549;42.286;22.688;2023-09-12T03:51:55;10.55;;;7.55;;
32038;SDS011;18549;42.286;22.688;2023-09-12T03:54:24;12.50;;;7.07;;
32038;SDS011;18549;42.286;22.688;2023-09-12T03:56:52;15.43;;;7.20;;
32038;SDS011;18549;42.286;22.688;2023-09-12T03:59:20;15.93;;;6.80;;
32038;SDS011;18549;42.286;22.688;2023-09-12T04:01:49;10.48;;;6.62;;
32038;SDS011;18549;42.286;22.688;2023-09-12T04:04:17;14.48;;;6.75;;
32038;SDS011;18549;42.286;22.688;2023-09-12T04:06:44;16.70;;;7.50;;
32038;SDS011;18549;42.286;22.688;2023-09-12T04:09:12;15.48;;;6.70;;
32038;SDS011;18549;42.286;22.688;2023-09-12T04:11:39;9.20;;;6.32;;
32038;SDS011;18549;42.286;22.688;2023-09-12T04:14:07;12.93;;;6.60;;
32038;SDS011;18549;42.286;22.688;2023-09-12T04:16:35;9.50;;;5.03;;
32038;SDS011;18549;42.286;22.688;2023-09-12T04:19:05;12.90;;;5.30;;
32038;SDS011;18549;42.286;22.688;2023-09-12T04:21:33;10.73;;;4.32;;
32038;SDS011;18549;42.286;22.688;2023-09-12T04:24:00;10.32;;;4.37;;
32038;SDS011;18549;42.286;22.688;2023-09-12T04:26:27;9.40;;;4.62;;
32038;SDS011;18549;42.286;22.688;2023-09-12T04:28:55;17.05;;;4.78;;
32038;SDS011;18549;42.286;22.688;2023-09-12T04:31:23;11.40;;;4.12;;
32038;SDS011;18549;42.286;22.688;2023-09-12T04:33:50;6.93;;;4.12;;
32038;SDS011;18549;42.286;22.688;2023-09-12T04:36:20;13.35;;;4.35;;
32038;SDS011;18549;42.286;22.688;2023-09-12T04:38:47;9.15;;;4.25;;
32038;SDS011;18549;42.286;22.688;2023-09-12T04:41:15;5.82;;;3.62;;
32038;SDS011;18549;42.286;22.688;2023-09-12T04:43:42;6.22;;;3.55;;
32038;SDS011;18549;42.286;22.688;2023-09-12T04:46:10;10.90;;;4.78;;
32038;SDS011;18549;42.286;22.688;2023-09-12T04:48:37;13.45;;;3.87;;
32038;SDS011;18549;42.286;22.688;2023-09-12T04:51:05;14.27;;;4.30;;
32038;SDS011;18549;42.286;22.688;2023-09-12T04:53:34;14.52;;;3.35;;
32038;SDS011;18549;42.286;22.688;2023-09-12T04:56:01;12.75;;;4.12;;
32038;SDS011;18549;42.286;22.688;2023-09-12T04:58:29;10.05;;;4.62;;
32038;SDS011;18549;42.286;22.688;2023-09-12T05:00:57;7.43;;;4.18;;
32038;SDS011;18549;42.286;22.688;2023-09-12T05:03:25;9.88;;;3.37;;
32038;SDS011;18549;42.286;22.688;2023-09-12T05:05:53;21.27;;;4.30;;
32038;SDS011;18549;42.286;22.688;2023-09-12T05:08:20;9.93;;;3.60;;
32038;SDS011;18549;42.286;22.688;2023-09-12T05:10:50;12.68;;;4.45;;
32038;SDS011;18549;42.286;22.688;2023-09-12T05:13:17;7.62;;;3.62;;
32038;SDS011;18549;42.286;22.688;2023-09-12T05:15:44;12.18;;;4.97;;
32038;SDS011;18549;42.286;22.688;2023-09-12T05:18:13;10.25;;;4.35;;
32038;SDS011;18549;42.286;22.688;2023-09-12T05:20:40;12.37;;;4.22;;
32038;SDS011;18549;42.286;22.688;2023-09-12T05:23:08;8.10;;;4.18;;
32038;SDS011;18549;42.286;22.688;2023-09-12T05:25:37;12.07;;;4.30;;
32038;SDS011;18549;42.286;22.688;2023-09-12T05:28:07;8.98;;;3.37;;
32038;SDS011;18549;42.286;22.688;2023-09-12T05:30:34;8.13;;;3.47;;
32038;SDS011;18549;42.286;22.688;2023-09-12T05:33:02;9.68;;;3.60;;
32038;SDS011;18549;42.286;22.688;2023-09-12T05:35:30;10.82;;;4.95;;
32038;SDS011;18549;42.286;22.688;2023-09-12T05:37:57;14.48;;;4.85;;
32038;SDS011;18549;42.286;22.688;2023-09-12T05:40:25;7.82;;;4.87;;
32038;SDS011;18549;42.286;22.688;2023-09-12T05:42:53;7.85;;;4.57;;
32038;SDS011;18549;42.286;22.688;2023-09-12T05:45:22;8.38;;;4.87;;
32038;SDS011;18549;42.286;22.688;2023-09-12T05:47:50;13.52;;;4.20;;
32038;SDS011;18549;42.286;22.688;2023-09-12T05:50:17;17.15;;;4.87;;
32038;SDS011;18549;42.286;22.688;2023-09-12T05:52:44;12.68;;;4.35;;
32038;SDS011;18549;42.286;22.688;2023-09-12T05:55:12;8.48;;;4.35;;
32038;SDS011;18549;42.286;22.688;2023-09-12T05:57:39;6.62;;;4.25;;
32038;SDS011;18549;42.286;22.688;2023-09-12T06:00:07;9.07;;;5.47;;
32038;SDS011;18549;42.286;22.688;2023-09-12T06:02:38;12.70;;;4.85;;
32038;SDS011;18549;42.286;22.688;2023-09-12T06:05:07;11.55;;;5.43;;
32038;SDS011;18549;42.286;22.688;2023-09-12T06:07:34;13.02;;;4.97;;
32038;SDS011;18549;42.286;22.688;2023-09-12T06:10:04;11.45;;;3.83;;
32038;SDS011;18549;42.286;22.688;2023-09-12T06:12:32;8.50;;;4.05;;
32038;SDS011;18549;42.286;22.688;2023-09-12T06:15:01;12.45;;;4.20;;
32038;SDS011;18549;42.286;22.688;2023-09-12T06:17:29;9.80;;;4.62;;
32038;SDS011;18549;42.286;22.688;2023-09-12T06:19:58;7.18;;;4.35;;
32038;SDS011;18549;42.286;22.688;2023-09-12T06:22:25;9.38;;;3.47;;
32038;SDS011;18549;42.286;22.688;2023-09-12T06:24:53;16.45;;;3.90;;
32038;SDS011;18549;42.286;22.688;2023-09-12T06:27:22;8.00;;;3.83;;
32038;SDS011;18549;42.286;22.688;2023-09-12T06:29:49;12.02;;;4.53;;
32038;SDS011;18549;42.286;22.688;2023-09-12T06:32:18;11.23;;;3.90;;
32038;SDS011;18549;42.286;22.688;2023-09-12T06:34:45;10.82;;;3.95;;
32038;SDS011;18549;42.286;22.688;2023-09-12T06:37:15;13.00;;;4.10;;
32038;SDS011;18549;42.286;22.688;2023-09-12T06:39:43;7.05;;;3.33;;
32038;SDS011;18549;42.286;22.688;2023-09-12T06:42:11;12.50;;;3.78;;
32038;SDS011;18549;42.286;22.688;2023-09-12T06:44:38;11.18;;;3.87;;
32038;SDS011;18549;42.286;22.688;2023-09-12T06:47:06;6.35;;;3.60;;
32038;SDS011;18549;42.286;22.688;2023-09-12T06:49:34;6.90;;;3.58;;
32038;SDS011;18549;42.286;22.688;2023-09-12T06:52:03;11.82;;;4.60;;
32038;SDS011;18549;42.286;22.688;2023-09-12T06:54:33;9.30;;;4.43;;
32038;SDS011;18549;42.286;22.688;2023-09-12T06:57:01;13.07;;;4.53;;
32038;SDS011;18549;42.286;22.688;2023-09-12T06:59:29;11.27;;;4.20;;
32038;SDS011;18549;42.286;22.688;2023-09-12T07:01:56;5.72;;;3.33;;
32038;SDS011;18549;42.286;22.688;2023-09-12T07:04:24;10.90;;;3.65;;
32038;SDS011;18549;42.286;22.688;2023-09-12T07:06:52;8.27;;;4.03;;
32038;SDS011;18549;42.286;22.688;2023-09-12T07:09:19;29.17;;;10.23;;
32038;SDS011;18549;42.286;22.688;2023-09-12T07:11:48;9.15;;;5.12;;
32038;SDS011;18549;42.286;22.688;2023-09-12T07:14:16;5.05;;;3.97;;
32038;SDS011;18549;42.286;22.688;2023-09-12T07:16:43;18.77;;;4.65;;
32038;SDS011;18549;42.286;22.688;2023-09-12T07:19:11;9.55;;;3.85;;
32038;SDS011;18549;42.286;22.688;2023-09-12T07:21:38;11.00;;;3.97;;
32038;SDS011;18549;42.286;22.688;2023-09-12T07:24:06;10.57;;;4.47;;
32038;SDS011;18549;42.286;22.688;2023-09-12T07:26:33;6.93;;;4.78;;
32038;SDS011;18549;42.286;22.688;2023-09-12T07:29:03;11.00;;;3.58;;
32038;SDS011;18549;42.286;22.688;2023-09-12T07:31:31;12.23;;;3.92;;
32038;SDS011;18549;42.286;22.688;2023-09-12T07:33:58;10.52;;;4.37;;
32038;SDS011;18549;42.286;22.688;2023-09-12T07:36:25;8.02;;;4.20;;
32038;SDS011;18549;42.286;22.688;2023-09-12T07:38:53;10.83;;;4.40;;
32038;SDS011;18549;42.286;22.688;2023-09-12T07:41:21;7.05;;;3.58;;
32038;SDS011;18549;42.286;22.688;2023-09-12T07:43:48;5.93;;;3.22;;
32038;SDS011;18549;42.286;22.688;2023-09-12T07:46:17;6.45;;;3.37;;
32038;SDS011;18549;42.286;22.688;2023-09-12T07:48:46;7.93;;;3.67;;
32038;SDS011;18549;42.286;22.688;2023-09-12T07:51:13;9.13;;;3.20;;
32038;SDS011;18549;42.286;22.688;2023-09-12T07:53:42;7.97;;;3.65;;
32038;SDS011;18549;42.286;22.688;2023-09-12T07:56:10;8.38;;;3.50;;
32038;SDS011;18549;42.286;22.688;2023-09-12T07:58:37;9.05;;;3.42;;
32038;SDS011;18549;42.286;22.688;2023-09-12T08:01:05;10.35;;;3.20;;
32038;SDS011;18549;42.286;22.688;2023-09-12T08:03:35;20.10;;;3.75;;
32038;SDS011;18549;42.286;22.688;2023-09-12T08:06:04;10.25;;;3.72;;
32038;SDS011;18549;42.286;22.688;2023-09-12T08:08:32;6.37;;;3.12;;
32038;SDS011;18549;42.286;22.688;2023-09-12T08:11:00;5.43;;;3.55;;
32038;SDS011;18549;42.286;22.688;2023-09-12T08:13:28;10.43;;;3.83;;
32038;SDS011;18549;42.286;22.688;2023-09-12T08:15:56;8.25;;;3.35;;
32038;SDS011;18549;42.286;22.688;2023-09-12T08:18:26;10.27;;;3.28;;
32038;SDS011;18549;42.286;22.688;2023-09-12T08:20:56;9.37;;;3.20;;
32038;SDS011;18549;42.286;22.688;2023-09-12T08:23:25;4.87;;;3.10;;
32038;SDS011;18549;42.286;22.688;2023-09-12T08:25:52;4.62;;;3.37;;
32038;SDS011;18549;42.286;22.688;2023-09-12T08:28:19;13.18;;;3.30;;
32038;SDS011;18549;42.286;22.688;2023-09-12T08:30:47;19.50;;;4.32;;
32038;SDS011;18549;42.286;22.688;2023-09-12T08:33:15;4.60;;;2.83;;
32038;SDS011;18549;42.286;22.688;2023-09-12T08:35:43;10.80;;;4.18;;
32038;SDS011;18549;42.286;22.688;2023-09-12T08:38:12;6.00;;;3.37;;
32038;SDS011;18549;42.286;22.688;2023-09-12T08:40:39;8.00;;;3.50;;
32038;SDS011;18549;42.286;22.688;2023-09-12T08:43:07;6.55;;;3.28;;
32038;SDS011;18549;42.286;22.688;2023-09-12T08:45:34;10.65;;;3.40;;
32038;SDS011;18549;42.286;22.688;2023-09-12T08:48:03;13.48;;;3.47;;
32038;SDS011;18549;42.286;22.688;2023-09-12T08:50:33;11.77;;;3.37;;
32038;SDS011;18549;42.286;22.688;2023-09-12T08:53:01;9.93;;;4.10;;
32038;SDS011;18549;42.286;22.688;2023-09-12T08:55:31;6.68;;;3.92;;
32038;SDS011;18549;42.286;22.688;2023-09-12T08:57:58;12.05;;;3.72;;
32038;SDS011;18549;42.286;22.688;2023-09-12T09:00:26;8.68;;;2.72;;
32038;SDS011;18549;42.286;22.688;2023-09-12T09:02:56;12.20;;;3.62;;
32038;SDS011;18549;42.286;22.688;2023-09-12T09:05:26;14.95;;;3.60;;
32038;SDS011;18549;42.286;22.688;2023-09-12T09:07:54;7.43;;;3.10;;
32038;SDS011;18549;42.286;22.688;2023-09-12T09:10:23;7.85;;;4.00;;
32038;SDS011;18549;42.286;22.688;2023-09-12T09:12:54;11.87;;;3.47;;
32038;SDS011;18549;42.286;22.688;2023-09-12T09:15:22;8.57;;;3.05;;
32038;SDS011;18549;42.286;22.688;2023-09-12T09:17:51;10.63;;;3.22;;
32038;SDS011;18549;42.286;22.688;2023-09-12T09:20:23;13.48;;;3.40;;
32038;SDS011;18549;42.286;22.688;2023-09-12T09:22:58;17.08;;;4.60;;
32038;SDS011;18549;42.286;22.688;2023-09-12T09:25:26;8.80;;;3.95;;
32038;SDS011;18549;42.286;22.688;2023-09-12T09:27:55;6.75;;;3.35;;
32038;SDS011;18549;42.286;22.688;2023-09-12T09:30:38;7.47;;;3.20;;
32038;SDS011;18549;42.286;22.688;2023-09-12T09:33:07;8.52;;;3.92;;
32038;SDS011;18549;42.286;22.688;2023-09-12T09:35:35;9.82;;;3.55;;
32038;SDS011;18549;42.286;22.688;2023-09-12T09:38:02;7.65;;;3.45;;
32038;SDS011;18549;42.286;22.688;2023-09-12T09:40:32;15.02;;;3.72;;
32038;SDS011;18549;42.286;22.688;2023-09-12T09:43:02;6.28;;;3.70;;
32038;SDS011;18549;42.286;22.688;2023-09-12T09:45:30;8.25;;;3.53;;
32038;SDS011;18549;42.286;22.688;2023-09-12T09:47:58;7.03;;;3.90;;
32038;SDS011;18549;42.286;22.688;2023-09-12T09:50:33;6.53;;;3.05;;
32038;SDS011;18549;42.286;22.688;2023-09-12T09:53:02;4.90;;;3.45;;
32038;SDS011;18549;42.286;22.688;2023-09-12T09:55:33;22.85;;;4.35;;
32038;SDS011;18549;42.286;22.688;2023-09-12T09:58:02;15.70;;;3.55;;
32038;SDS011;18549;42.286;22.688;2023-09-12T10:00:33;9.30;;;3.87;;
32038;SDS011;18549;42.286;22.688;2023-09-12T10:03:04;6.72;;;2.97;;
32038;SDS011;18549;42.286;22.688;2023-09-12T10:05:32;4.62;;;2.80;;
32038;SDS011;18549;42.286;22.688;2023-09-12T10:07:59;9.32;;;3.70;;
32038;SDS011;18549;42.286;22.688;2023-09-12T10:10:30;9.00;;;2.83;;
32038;SDS011;18549;42.286;22.688;2023-09-12T10:13:03;8.40;;;3.30;;
32038;SDS011;18549;42.286;22.688;2023-09-12T10:15:32;4.62;;;3.10;;
32038;SDS011;18549;42.286;22.688;2023-09-12T10:18:04;6.45;;;3.08;;
32038;SDS011;18549;42.286;22.688;2023-09-12T10:20:37;11.70;;;3.00;;
32038;SDS011;18549;42.286;22.688;2023-09-12T10:23:11;4.78;;;2.87;;
32038;SDS011;18549;42.286;22.688;2023-09-12T10:25:44;5.05;;;3.17;;
32038;SDS011;18549;42.286;22.688;2023-09-12T10:28:13;5.57;;;3.03;;
32038;SDS011;18549;42.286;22.688;2023-09-12T10:30:41;5.68;;;2.85;;
32038;SDS011;18549;42.286;22.688;2023-09-12T10:33:09;15.30;;;2.70;;
32038;SDS011;18549;42.286;22.688;2023-09-12T10:35:40;6.97;;;3.55;;
32038;SDS011;18549;42.286;22.688;2023-09-12T10:38:08;4.28;;;2.83;;
32038;SDS011;18549;42.286;22.688;2023-09-12T10:40:36;11.32;;;2.92;;
32038;SDS011;18549;42.286;22.688;2023-09-12T10:43:04;7.72;;;3.15;;
32038;SDS011;18549;42.286;22.688;2023-09-12T10:45:33;11.30;;;2.92;;
32038;SDS011;18549;42.286;22.688;2023-09-12T10:48:02;10.60;;;3.17;;
32038;SDS011;18549;42.286;22.688;2023-09-12T10:50:30;10.68;;;3.15;;
32038;SDS011;18549;42.286;22.688;2023-09-12T10:53:08;12.68;;;2.90;;
32038;SDS011;18549;42.286;22.688;2023-09-12T10:55:37;8.27;;;4.03;;
32038;SDS011;18549;42.286;22.688;2023-09-12T10:58:05;16.05;;;2.92;;
32038;SDS011;18549;42.286;22.688;2023-09-12T11:00:35;11.88;;;3.33;;
32038;SDS011;18549;42.286;22.688;2023-09-12T11:06:02;5.97;;;2.83;;
32038;SDS011;18549;42.286;22.688;2023-09-12T11:08:35;4.32;;;2.55;;
32038;SDS011;18549;42.286;22.688;2023-09-12T11:11:18;5.82;;;2.78;;
32038;SDS011;18549;42.286;22.688;2023-09-12T11:13:47;8.77;;;2.55;;
32038;SDS011;18549;42.286;22.688;2023-09-12T11:16:31;7.18;;;2.78;;
32038;SDS011;18549;42.286;22.688;2023-09-12T11:19:13;12.13;;;2.95;;
32038;SDS011;18549;42.286;22.688;2023-09-12T11:21:41;6.75;;;3.17;;
32038;SDS011;18549;42.286;22.688;2023-09-12T11:24:10;11.18;;;3.35;;
32038;SDS011;18549;42.286;22.688;2023-09-12T11:29:34;7.43;;;3.10;;
32038;SDS011;18549;42.286;22.688;2023-09-12T11:32:04;8.55;;;2.67;;
32038;SDS011;18549;42.286;22.688;2023-09-12T11:34:36;7.03;;;2.42;;
32038;SDS011;18549;42.286;22.688;2023-09-12T11:37:04;17.08;;;3.40;;
32038;SDS011;18549;42.286;22.688;2023-09-12T11:39:32;9.13;;;2.80;;
32038;SDS011;18549;42.286;22.688;2023-09-12T11:42:01;5.40;;;2.87;;
32038;SDS011;18549;42.286;22.688;2023-09-12T11:44:29;13.30;;;3.50;;
32038;SDS011;18549;42.286;22.688;2023-09-12T11:46:59;9.27;;;2.60;;
32038;SDS011;18549;42.286;22.688;2023-09-12T11:49:36;13.55;;;3.72;;
32038;SDS011;18549;42.286;22.688;2023-09-12T11:52:07;6.20;;;2.05;;
32038;SDS011;18549;42.286;22.688;2023-09-12T11:54:35;7.32;;;2.75;;
32038;SDS011;18549;42.286;22.688;2023-09-12T11:57:06;14.55;;;2.60;;
32038;SDS011;18549;42.286;22.688;2023-09-12T11:59:36;9.00;;;2.45;;
32038;SDS011;18549;42.286;22.688;2023-09-12T12:02:05;15.68;;;4.10;;
32038;SDS011;18549;42.286;22.688;2023-09-12T12:04:33;8.48;;;3.08;;
32038;SDS011;18549;42.286;22.688;2023-09-12T12:07:03;10.02;;;3.25;;
32038;SDS011;18549;42.286;22.688;2023-09-12T12:09:31;6.62;;;2.75;;
32038;SDS011;18549;42.286;22.688;2023-09-12T12:12:03;7.78;;;2.67;;
32038;SDS011;18549;42.286;22.688;2023-09-12T12:14:35;5.90;;;3.05;;
32038;SDS011;18549;42.286;22.688;2023-09-12T12:17:06;12.88;;;2.95;;
32038;SDS011;18549;42.286;22.688;2023-09-12T12:19:36;7.35;;;2.53;;
32038;SDS011;18549;42.286;22.688;2023-09-12T12:22:04;12.60;;;2.40;;
32038;SDS011;18549;42.286;22.688;2023-09-12T12:24:38;9.23;;;2.50;;
32038;SDS011;18549;42.286;22.688;2023-09-12T12:27:07;14.90;;;3.03;;
32038;SDS011;18549;42.286;22.688;2023-09-12T12:29:36;4.85;;;2.30;;
32038;SDS011;18549;42.286;22.688;2023-09-12T12:32:06;13.35;;;3.20;;
32038;SDS011;18549;42.286;22.688;2023-09-12T12:34:36;11.60;;;3.25;;
32038;SDS011;18549;42.286;22.688;2023-09-12T12:37:03;9.27;;;2.50;;
32038;SDS011;18549;42.286;22.688;2023-09-12T12:39:31;6.43;;;2.40;;
32038;SDS011;18549;42.286;22.688;2023-09-12T12:41:59;9.40;;;2.53;;
32038;SDS011;18549;42.286;22.688;2023-09-12T12:44:34;13.48;;;3.00;;
32038;SDS011;18549;42.286;22.688;2023-09-12T12:47:09;5.22;;;2.30;;
32038;SDS011;18549;42.286;22.688;2023-09-12T12:49:38;12.02;;;2.87;;
32038;SDS011;18549;42.286;22.688;2023-09-12T12:52:06;6.78;;;3.05;;
32038;SDS011;18549;42.286;22.688;2023-09-12T12:54:36;11.68;;;3.05;;
32038;SDS011;18549;42.286;22.688;2023-09-12T12:57:04;10.07;;;2.87;;
32038;SDS011;18549;42.286;22.688;2023-09-12T12:59:31;5.87;;;1.90;;
32038;SDS011;18549;42.286;22.688;2023-09-12T13:02:01;11.50;;;3.22;;
32038;SDS011;18549;42.286;22.688;2023-09-12T13:04:35;7.82;;;2.53;;
32038;SDS011;18549;42.286;22.688;2023-09-12T13:07:05;9.25;;;2.72;;
32038;SDS011;18549;42.286;22.688;2023-09-12T13:09:32;10.20;;;2.95;;
32038;SDS011;18549;42.286;22.688;2023-09-12T13:12:00;5.35;;;2.40;;
32038;SDS011;18549;42.286;22.688;2023-09-12T13:14:27;8.85;;;3.75;;
32038;SDS011;18549;42.286;22.688;2023-09-12T13:16:58;5.97;;;2.75;;
32038;SDS011;18549;42.286;22.688;2023-09-12T13:19:25;12.93;;;2.50;;
32038;SDS011;18549;42.286;22.688;2023-09-12T13:21:53;9.35;;;3.45;;
32038;SDS011;18549;42.286;22.688;2023-09-12T13:24:22;5.40;;;2.17;;
32038;SDS011;18549;42.286;22.688;2023-09-12T13:26:49;12.18;;;3.15;;
32038;SDS011;18549;42.286;22.688;2023-09-12T13:29:17;7.32;;;2.55;;
32038;SDS011;18549;42.286;22.688;2023-09-12T13:31:44;7.45;;;2.90;;
32038;SDS011;18549;42.286;22.688;2023-09-12T13:34:12;9.15;;;2.30;;
32038;SDS011;18549;42.286;22.688;2023-09-12T13:36:39;8.35;;;2.85;;
32038;SDS011;18549;42.286;22.688;2023-09-12T13:39:07;6.28;;;2.83;;
32038;SDS011;18549;42.286;22.688;2023-09-12T13:41:36;9.43;;;3.47;;
32038;SDS011;18549;42.286;22.688;2023-09-12T13:44:04;11.05;;;3.15;;
32038;SDS011;18549;42.286;22.688;2023-09-12T13:46:32;7.32;;;2.78;;
32038;SDS011;18549;42.286;22.688;2023-09-12T13:48:59;13.35;;;2.53;;
32038;SDS011;18549;42.286;22.688;2023-09-12T13:51:28;8.55;;;2.67;;
32038;SDS011;18549;42.286;22.688;2023-09-12T13:53:56;12.37;;;3.17;;
32038;SDS011;18549;42.286;22.688;2023-09-12T13:56:23;9.93;;;4.15;;
32038;SDS011;18549;42.286;22.688;2023-09-12T13:58:52;7.60;;;3.03;;
32038;SDS011;18549;42.286;22.688;2023-09-12T14:01:21;16.42;;;2.80;;
32038;SDS011;18549;42.286;22.688;2023-09-12T14:03:48;6.93;;;2.83;;
32038;SDS011;18549;42.286;22.688;2023-09-12T14:06:15;7.60;;;3.35;;
32038;SDS011;18549;42.286;22.688;2023-09-12T14:08:43;11.45;;;3.55;;
32038;SDS011;18549;42.286;22.688;2023-09-12T14:11:10;10.70;;;2.42;;
32038;SDS011;18549;42.286;22.688;2023-09-12T14:13:38;10.32;;;2.72;;
32038;SDS011;18549;42.286;22.688;2023-09-12T14:16:06;8.73;;;2.55;;
32038;SDS011;18549;42.286;22.688;2023-09-12T14:18:34;5.95;;;2.45;;
32038;SDS011;18549;42.286;22.688;2023-09-12T14:21:02;12.90;;;2.53;;
32038;SDS011;18549;42.286;22.688;2023-09-12T14:23:30;4.80;;;2.17;;
32038;SDS011;18549;42.286;22.688;2023-09-12T14:25:57;7.85;;;3.53;;
32038;SDS011;18549;42.286;22.688;2023-09-12T14:28:24;6.95;;;2.75;;
32038;SDS011;18549;42.286;22.688;2023-09-12T14:30:53;14.57;;;2.50;;
32038;SDS011;18549;42.286;22.688;2023-09-12T14:33:22;11.02;;;3.30;;
32038;SDS011;18549;42.286;22.688;2023-09-12T14:35:50;5.20;;;2.55;;
32038;SDS011;18549;42.286;22.688;2023-09-12T14:38:17;6.70;;;2.67;;
32038;SDS011;18549;42.286;22.688;2023-09-12T14:40:45;6.35;;;2.50;;
32038;SDS011;18549;42.286;22.688;2023-09-12T14:43:12;11.85;;;3.05;;
32038;SDS011;18549;42.286;22.688;2023-09-12T14:45:40;6.12;;;2.30;;